Ushers, New York
Current Conditions -  °F | °C
As of 2:51 PM on Thursday 29 Jan 2015 (Local Time) from KALB Reporting Station
Overcast Overcast  
Wind Chill: 17°   Ceiling: 11000
Heat Index: 28°   Visibility: 10mi
Dew Point:   Wind: 14mph
Humidity: 34%   Direction: 180°S
Pressure: 30.09"   Gusts: 22mph
Location:  42.9237°N, 73.789°W
Report Text: KALB 291951Z 18012G19KT 10SM BKN110 BKN180 OVC260 M02/M16 A3009 RMK AO2 SLP196 T10221161
Loading
Personal Weather Stations






























Interactive Weather Map New forecast layout! Learn more

10-Day Weather Forecast

Advertisements
Track Severe Weather on mobile